Time;durP1;ratioP1;P1;durP2;ratioP2;P2;SDS_P1;SDS_P2;PMS_P1;PMS_P2;Temp;Humidity;BMP_temperature;BMP_pressure;BME280_temperature;BME280_humidity;BME280_pressure;Samples;Min_cycle;Max_cycle;Signal;HPM_P1;HPM_P2
2021/06/19 02:47:09;;;;;;;8.13;5.70;;;21.40;82.30;;;;;;4953626;24;20117;-77
2021/06/19 02:49:35;;;;;;;11.13;6.15;;;21.40;82.20;;;;;;4712547;30;20105;-77
2021/06/19 02:52:01;;;;;;;8.43;5.88;;;21.40;82.20;;;;;;4720446;30;20124;-77
2021/06/19 02:54:27;;;;;;;9.45;6.53;;;21.40;82.10;;;;;;4725589;30;20032;-77
2021/06/19 02:56:52;;;;;;;9.25;6.22;;;21.40;82.00;;;;;;4726899;30;20029;-77
2021/06/19 02:59:18;;;;;;;8.77;6.13;;;21.50;82.00;;;;;;4709109;30;20034;-77
2021/06/19 03:01:45;;;;;;;11.27;5.85;;;21.50;81.70;;;;;;4699271;30;20216;-77
2021/06/19 03:04:13;;;;;;;10.93;5.47;;;21.50;81.90;;;;;;4726620;30;20043;-77
2021/06/19 03:06:38;;;;;;;9.20;6.03;;;21.50;82.00;;;;;;4726690;30;20036;-77
2021/06/19 03:09:04;;;;;;;10.35;6.50;;;21.50;82.00;;;;;;4726299;30;20033;-77
2021/06/19 03:11:30;;;;;;;11.65;5.95;;;21.60;82.20;;;;;;4727471;30;20033;-78
2021/06/19 03:13:57;;;;;;;11.10;6.50;;;21.60;82.10;;;;;;4727550;30;20024;-77
2021/06/19 03:16:22;;;;;;;15.88;6.75;;;21.60;82.00;;;;;;4725991;30;20033;-77
2021/06/19 03:18:48;;;;;;;12.50;6.00;;;21.70;81.90;;;;;;4727388;30;20034;-78
2021/06/19 03:21:14;;;;;;;9.43;6.30;;;21.70;81.90;;;;;;4726461;30;20698;-77
2021/06/19 03:23:40;;;;;;;8.85;5.90;;;21.70;82.00;;;;;;4726299;30;20122;-77
2021/06/19 03:26:05;;;;;;;12.77;6.05;;;21.70;82.20;;;;;;4727151;30;20029;-77
2021/06/19 03:28:31;;;;;;;9.52;5.35;;;21.70;82.40;;;;;;4726062;30;20104;-77
2021/06/19 03:30:57;;;;;;;10.32;5.47;;;21.80;82.20;;;;;;4727043;30;20103;-78
2021/06/19 03:33:23;;;;;;;10.82;5.60;;;21.90;81.70;;;;;;4726037;30;20041;-78
2021/06/19 03:35:49;;;;;;;7.55;6.00;;;21.90;81.50;;;;;;4727524;30;20059;-77
2021/06/19 03:38:14;;;;;;;9.60;5.85;;;21.90;81.30;;;;;;4726298;30;20324;-77
2021/06/19 03:40:40;;;;;;;10.25;6.60;;;22.00;80.80;;;;;;4727445;30;20087;-78
2021/06/19 03:43:07;;;;;;;9.93;6.43;;;22.10;81.40;;;;;;4721265;30;20087;-77
2021/06/19 03:45:35;;;;;;;10.30;6.18;;;22.10;80.30;;;;;;4725669;30;20321;-77
2021/06/19 03:48:03;;;;;;;10.45;6.13;;;22.20;80.10;;;;;;4709419;30;20050;-77
2021/06/19 03:50:29;;;;;;;13.85;6.07;;;22.20;80.10;;;;;;4727279;30;20041;-77
2021/06/19 03:52:56;;;;;;;8.93;5.90;;;22.30;80.00;;;;;;4726950;30;20233;-77
2021/06/19 03:55:23;;;;;;;9.93;5.88;;;22.40;79.30;;;;;;4726914;30;20029;-79
2021/06/19 03:57:49;;;;;;;14.38;7.07;;;22.40;79.20;;;;;;4725575;30;20029;-77
2021/06/19 04:00:18;;;;;;;14.60;6.90;;;22.50;79.00;;;;;;4726060;30;20044;-77
2021/06/19 04:02:44;;;;;;;10.93;6.63;;;22.60;78.80;;;;;;4725673;30;20029;-78
2021/06/19 04:05:11;;;;;;;22.67;6.97;;;22.60;78.60;;;;;;4711405;30;20029;-77
2021/06/19 04:07:37;;;;;;;17.35;7.60;;;22.70;78.50;;;;;;4726076;30;20033;-77
2021/06/19 04:10:04;;;;;;;18.33;7.18;;;22.80;78.00;;;;;;4726055;30;20121;-79
2021/06/19 04:12:30;;;;;;;10.95;6.47;;;22.90;77.90;;;;;;4730122;30;20320;-77
2021/06/19 04:14:56;;;;;;;19.92;6.88;;;23.00;77.30;;;;;;4729484;30;20096;-78
2021/06/19 04:17:22;;;;;;;15.05;6.55;;;23.10;76.80;;;;;;4719594;30;20106;-77
2021/06/19 04:19:47;;;;;;;8.88;6.47;;;23.20;76.20;;;;;;4715723;30;20048;-78
2021/06/19 04:22:14;;;;;;;12.13;6.70;;;23.20;75.90;;;;;;4729706;30;20123;-77
2021/06/19 04:24:40;;;;;;;18.77;8.07;;;23.30;75.90;;;;;;4715531;30;20069;-78
2021/06/19 04:27:13;;;;;;;25.67;7.68;;;23.40;76.40;;;;;;4732996;30;20059;-78
2021/06/19 04:29:40;;;;;;;11.40;6.78;;;23.40;76.00;;;;;;4731809;30;20284;-77
2021/06/19 04:32:07;;;;;;;14.70;6.55;;;23.40;76.30;;;;;;4729897;30;20178;-75
2021/06/19 04:34:33;;;;;;;13.73;6.10;;;23.50;76.40;;;;;;4713706;30;20080;-77
2021/06/19 04:36:59;;;;;;;12.68;7.22;;;23.50;75.70;;;;;;4728390;30;20205;-76
2021/06/19 04:39:24;;;;;;;11.85;7.35;;;23.70;76.70;;;;;;4727574;30;20025;-77
2021/06/19 04:41:57;;;;;;;12.65;7.65;;;23.70;76.30;;;;;;4713824;30;20036;-77
2021/06/19 04:46:51;;;;;;;15.75;7.50;;;23.80;75.70;;;;;;4728367;30;20053;-76
2021/06/19 04:49:18;;;;;;;13.77;6.37;;;23.90;75.30;;;;;;4723997;30;20299;-76
2021/06/19 04:51:45;;;;;;;20.33;7.28;;;24.00;75.70;;;;;;4729903;30;20044;-78
2021/06/19 04:54:12;;;;;;;19.88;7.75;;;24.10;75.00;;;;;;4729737;30;20164;-77
2021/06/19 04:56:39;;;;;;;24.23;6.50;;;24.20;74.80;;;;;;4714049;30;20041;-77
2021/06/19 04:59:05;;;;;;;13.40;6.20;;;24.20;74.30;;;;;;4728445;30;20047;-77
2021/06/19 05:01:30;;;;;;;12.05;6.47;;;24.40;74.60;;;;;;4714323;30;20041;-77
2021/06/19 05:03:56;;;;;;;22.58;9.65;;;24.60;73.80;;;;;;4728521;30;20048;-77
2021/06/19 05:06:22;;;;;;;13.90;6.38;;;24.80;73.50;;;;;;4714594;30;20029;-77
2021/06/19 05:08:48;;;;;;;13.45;5.78;;;24.90;71.60;;;;;;4729674;30;20025;-78
2021/06/19 05:11:14;;;;;;;11.48;6.45;;;25.00;71.20;;;;;;4714157;30;20036;-77
2021/06/19 05:13:40;;;;;;;19.45;5.53;;;25.20;70.70;;;;;;4728265;30;20129;-78
2021/06/19 05:16:05;;;;;;;10.45;5.65;;;25.70;69.80;;;;;;4731795;30;20075;-76
2021/06/19 05:18:31;;;;;;;13.05;5.78;;;26.70;66.10;;;;;;4713783;30;20105;-76
2021/06/19 05:20:57;;;;;;;6.03;4.50;;;27.60;65.00;;;;;;4727950;30;20037;-76
2021/06/19 05:23:23;;;;;;;10.98;5.57;;;28.60;60.40;;;;;;4727931;30;20060;-77
2021/06/19 05:25:48;;;;;;;10.23;5.20;;;29.40;59.20;;;;;;4728695;30;20032;-77
2021/06/19 05:28:16;;;;;;;5.13;4.63;;;29.90;56.50;;;;;;4728588;30;20056;-77
2021/06/19 05:30:42;;;;;;;12.18;5.20;;;30.20;56.30;;;;;;4727690;30;20213;-77
2021/06/19 05:33:08;;;;;;;9.50;4.63;;;30.50;55.30;;;;;;4727466;30;20105;-77
2021/06/19 05:35:34;;;;;;;8.77;4.40;;;30.80;53.10;;;;;;4727682;30;20268;-79
2021/06/19 05:38:00;;;;;;;7.77;4.13;;;31.10;53.50;;;;;;4713925;30;20056;-77
2021/06/19 05:40:26;;;;;;;8.35;4.03;;;31.70;50.80;;;;;;4729692;30;20033;-77
2021/06/19 05:42:53;;;;;;;6.60;4.47;;;31.70;50.20;;;;;;4728894;30;20036;-79
2021/06/19 05:45:19;;;;;;;8.68;4.65;;;31.90;49.80;;;;;;4729482;30;20081;-77
2021/06/19 05:47:44;;;;;;;7.60;4.93;;;32.10;49.80;;;;;;4727252;30;20049;-77
2021/06/19 05:50:11;;;;;;;17.37;4.77;;;32.30;48.40;;;;;;4727163;30;20356;-77
2021/06/19 05:52:37;;;;;;;8.63;4.68;;;32.40;49.40;;;;;;4727282;30;20036;-77
2021/06/19 05:55:04;;;;;;;9.27;4.47;;;32.80;50.10;;;;;;4726889;30;20037;-77
2021/06/19 05:57:29;;;;;;;12.57;4.53;;;32.90;48.50;;;;;;4713151;30;20037;-77
2021/06/19 05:59:55;;;;;;;11.43;4.30;;;32.90;47.40;;;;;;4728743;30;20217;-77
2021/06/19 06:02:21;;;;;;;7.97;4.90;;;33.00;48.30;;;;;;4727458;30;20057;-78
2021/06/19 06:04:47;;;;;;;12.73;5.73;;;33.10;48.40;;;;;;4727584;30;20252;-78
2021/06/19 06:07:13;;;;;;;9.27;4.80;;;33.20;47.50;;;;;;4724845;30;20028;-77
2021/06/19 06:09:39;;;;;;;13.20;5.20;;;32.80;47.20;;;;;;4727601;30;21027;-77
2021/06/19 06:12:06;;;;;;;9.60;4.70;;;32.10;49.00;;;;;;4706248;30;20037;-77
2021/06/19 06:14:32;;;;;;;9.30;4.85;;;31.80;50.00;;;;;;4727041;30;20049;-77
2021/06/19 06:16:58;;;;;;;12.47;5.10;;;31.50;49.50;;;;;;4727030;30;20025;-77
2021/06/19 06:19:24;;;;;;;11.73;5.53;;;31.40;50.60;;;;;;4727166;30;20040;-77
2021/06/19 06:21:50;;;;;;;8.87;4.53;;;31.10;50.10;;;;;;4727089;30;20083;-79
2021/06/19 06:24:16;;;;;;;10.93;4.88;;;30.80;52.10;;;;;;4721307;30;20359;-78
2021/06/19 06:26:43;;;;;;;12.27;4.93;;;30.60;53.90;;;;;;4720335;30;20033;-77
2021/06/19 06:29:09;;;;;;;10.52;5.95;;;30.70;52.00;;;;;;4711057;30;20035;-78
2021/06/19 06:31:35;;;;;;;15.27;5.07;;;30.60;51.70;;;;;;4727782;30;20025;-78
2021/06/19 06:34:01;;;;;;;7.77;4.10;;;30.50;52.60;;;;;;4713071;30;20222;-77
2021/06/19 06:36:26;;;;;;;10.67;5.27;;;30.70;53.60;;;;;;4727593;30;20037;-77
2021/06/19 06:38:52;;;;;;;10.57;4.77;;;30.70;52.60;;;;;;4727470;30;20044;-77
2021/06/19 06:41:18;;;;;;;5.97;4.20;;;30.80;52.80;;;;;;4728587;30;20325;-77
2021/06/19 06:43:44;;;;;;;10.13;4.83;;;30.90;52.40;;;;;;4727331;30;20051;-77
2021/06/19 06:46:10;;;;;;;10.07;4.67;;;31.20;52.20;;;;;;4724294;30;20028;-77
2021/06/19 06:48:36;;;;;;;13.57;5.27;;;31.20;51.00;;;;;;4726158;30;20029;-76
2021/06/19 06:51:02;;;;;;;7.67;4.80;;;31.10;51.00;;;;;;4711408;30;20096;-77
2021/06/19 06:53:27;;;;;;;8.27;4.40;;;31.20;52.30;;;;;;4728295;30;20044;-77
2021/06/19 06:55:53;;;;;;;9.03;4.83;;;31.20;52.20;;;;;;4727179;30;20025;-77
2021/06/19 06:58:19;;;;;;;8.63;4.50;;;31.10;50.40;;;;;;4727612;30;20033;-77
2021/06/19 07:00:45;;;;;;;9.63;4.77;;;31.00;49.80;;;;;;4729796;30;20073;-77
2021/06/19 07:03:11;;;;;;;8.57;4.93;;;30.90;51.30;;;;;;4728181;30;20033;-77
2021/06/19 07:05:37;;;;;;;9.90;4.37;;;30.80;51.10;;;;;;4726742;30;20232;-77
2021/06/19 07:08:03;;;;;;;10.90;4.60;;;30.70;51.60;;;;;;4726395;30;20029;-77
2021/06/19 07:10:28;;;;;;;9.57;5.23;;;30.90;51.90;;;;;;4726464;30;20285;-77
2021/06/19 07:12:54;;;;;;;13.13;4.57;;;31.00;50.50;;;;;;4726765;30;20029;-77
2021/06/19 07:15:20;;;;;;;8.70;4.20;;;31.10;51.30;;;;;;4727264;30;20159;-77
2021/06/19 07:17:49;;;;;;;13.03;4.53;;;31.20;50.90;;;;;;4727104;30;20101;-77
2021/06/19 07:20:16;;;;;;;6.80;4.13;;;31.10;50.60;;;;;;4726893;30;20056;-79
2021/06/19 07:22:43;;;;;;;6.15;4.07;;;31.00;52.40;;;;;;4730211;30;20064;-79
2021/06/19 07:25:10;;;;;;;6.85;4.80;;;31.10;52.50;;;;;;4730674;30;20044;-78
2021/06/19 07:27:36;;;;;;;;;;;31.30;50.90;;;;;;4731398;30;20040;-78
2021/06/19 07:30:03;;;;;;;;;;;31.20;50.10;;;;;;4716798;30;19914;-78
2021/06/19 07:32:29;;;;;;;16.95;4.78;;;31.00;51.30;;;;;;4716894;30;19974;-78
2021/06/19 07:34:55;;;;;;;15.63;5.30;;;30.90;51.70;;;;;;4732227;30;20040;-79
2021/06/19 07:37:20;;;;;;;6.90;4.20;;;31.00;51.70;;;;;;4732194;30;20033;-78
2021/06/19 07:39:47;;;;;;;8.70;4.57;;;31.20;52.80;;;;;;4731208;30;20029;-78
2021/06/19 07:42:12;;;;;;;6.57;4.50;;;31.30;51.60;;;;;;4717756;30;20048;-79
2021/06/19 07:44:38;;;;;;;5.30;4.23;;;31.50;52.80;;;;;;4732132;30;20291;-79
2021/06/19 07:47:04;;;;;;;11.47;4.53;;;31.80;51.40;;;;;;4740190;30;20076;-79
2021/06/19 07:49:30;;;;;;;5.07;4.13;;;31.90;50.40;;;;;;4736079;30;20033;-78
2021/06/19 07:51:57;;;;;;;11.43;3.83;;;31.80;50.20;;;;;;4718884;30;20044;-79
2021/06/19 07:54:23;;;;;;;8.13;4.20;;;31.90;50.60;;;;;;4721820;30;20114;-79
2021/06/19 07:56:49;;;;;;;7.57;4.03;;;31.90;50.80;;;;;;4735565;30;20049;-79
2021/06/19 07:59:15;;;;;;;9.80;4.40;;;31.90;49.80;;;;;;4735217;30;20060;-78
2021/06/19 08:01:40;;;;;;;6.50;3.77;;;31.80;50.70;;;;;;4734987;30;20141;-79
2021/06/19 08:04:06;;;;;;;10.23;4.37;;;31.70;50.10;;;;;;4732431;30;20089;-78
2021/06/19 08:06:32;;;;;;;4.90;3.77;;;31.70;49.20;;;;;;4719871;30;20079;-78
2021/06/19 08:08:58;;;;;;;7.20;4.03;;;31.60;49.60;;;;;;4731329;30;20483;-79
2021/06/19 08:11:25;;;;;;;6.83;3.70;;;31.60;49.80;;;;;;4720011;30;20041;-79
2021/06/19 08:13:53;;;;;;;6.90;4.18;;;31.80;48.80;;;;;;4732737;30;20437;-79
2021/06/19 08:16:19;;;;;;;5.93;4.05;;;31.80;50.60;;;;;;4733925;30;20260;-78
2021/06/19 08:18:48;;;;;;;14.20;4.10;;;32.00;50.10;;;;;;4732186;30;20033;-79
2021/06/19 08:21:14;;;;;;;8.30;4.45;;;32.30;50.10;;;;;;4733405;30;20121;-78
2021/06/19 08:23:41;;;;;;;;;;;32.30;48.50;;;;;;4719717;30;20183;-79
2021/06/19 08:26:07;;;;;;;4.70;3.60;;;32.40;48.60;;;;;;4718327;30;20262;-79
2021/06/19 08:28:34;;;;;;;7.22;4.18;;;32.50;49.00;;;;;;4714546;30;20029;-79
2021/06/19 08:31:02;;;;;;;10.80;4.13;;;32.50;48.00;;;;;;4712087;30;20033;-78
2021/06/19 08:33:28;;;;;;;5.72;3.95;;;32.50;48.40;;;;;;4730718;30;20029;-79
2021/06/19 08:35:54;;;;;;;6.35;4.38;;;32.50;49.70;;;;;;4726663;30;20036;-79
2021/06/19 08:38:19;;;;;;;10.73;4.90;;;32.60;50.20;;;;;;4731128;30;20033;-78
2021/06/19 08:40:45;;;;;;;11.47;3.97;;;32.70;48.60;;;;;;4728559;30;20073;-79
2021/06/19 08:43:11;;;;;;;5.37;3.63;;;32.70;47.20;;;;;;4731437;30;20047;-79
2021/06/19 08:45:37;;;;;;;6.13;3.95;;;32.70;47.20;;;;;;4732705;30;20067;-79
2021/06/19 08:48:04;;;;;;;6.60;3.90;;;32.50;47.70;;;;;;4731806;30;20053;-79
2021/06/19 08:50:30;;;;;;;;;;;32.40;49.50;;;;;;4729806;30;20329;-77
2021/06/19 08:53:00;;;;;;;6.80;4.40;;;32.60;48.50;;;;;;4718554;30;19918;-77
2021/06/19 08:55:27;;;;;;;6.15;4.45;;;32.70;47.50;;;;;;4728639;30;20100;-76
2021/06/19 08:57:53;;;;;;;7.35;3.92;;;32.70;48.50;;;;;;4727919;30;20065;-79
2021/06/19 09:00:19;;;;;;;9.27;4.47;;;32.80;47.90;;;;;;4718293;30;20033;-79
2021/06/19 09:02:48;;;;;;;8.30;3.83;;;32.90;47.40;;;;;;4718632;30;20040;-79
2021/06/19 09:05:24;;;;;;;13.55;4.13;;;33.10;49.30;;;;;;4732806;30;20136;-79
2021/06/19 09:07:51;;;;;;;7.20;4.13;;;33.40;48.10;;;;;;4717837;30;20033;-79
2021/06/19 09:10:25;;;;;;;7.07;3.95;;;33.60;47.50;;;;;;4731162;30;20043;-79
2021/06/19 09:12:57;;;;;;;9.90;4.28;;;33.60;47.80;;;;;;4717581;30;20029;-79
2021/06/19 09:15:22;;;;;;;7.20;4.30;;;33.60;47.50;;;;;;4718047;30;20029;-79
2021/06/19 09:18:11;;;;;;;7.55;5.15;;;33.70;47.00;;;;;;4719454;30;20033;-79
2021/06/19 09:20:49;;;;;;;9.80;4.57;;;33.70;46.50;;;;;;4731657;30;20033;-79
2021/06/19 09:23:18;;;;;;;10.45;4.55;;;33.80;46.00;;;;;;4731009;30;20036;-79
2021/06/19 09:25:44;;;;;;;9.15;4.40;;;33.90;46.70;;;;;;4710812;30;20033;-79
2021/06/19 09:28:11;;;;;;;8.32;4.57;;;34.00;45.50;;;;;;4732226;30;20032;-79
2021/06/19 09:30:39;;;;;;;11.95;4.80;;;33.90;46.50;;;;;;4716489;30;20029;-79
2021/06/19 09:33:11;;;;;;;8.93;3.95;;;34.00;47.20;;;;;;4715137;30;20037;-79
2021/06/19 09:35:41;;;;;;;7.15;4.30;;;34.10;47.00;;;;;;4728091;30;20029;-79
2021/06/19 09:38:17;;;;;;;6.95;4.30;;;34.20;49.10;;;;;;4710678;30;20037;-79
2021/06/19 09:40:44;;;;;;;7.88;4.20;;;34.30;45.50;;;;;;4715897;30;20025;-79
2021/06/19 09:43:23;;;;;;;4.88;4.30;;;34.30;46.70;;;;;;4730174;30;20271;-79
2021/06/19 09:45:59;;;;;;;8.15;4.93;;;34.40;45.80;;;;;;4729815;30;20024;-79
2021/06/19 09:48:35;;;;;;;7.63;3.95;;;34.50;45.90;;;;;;4729524;30;20045;-79
2021/06/19 09:51:21;;;;;;;12.00;4.07;;;34.30;46.30;;;;;;4715089;30;20037;-79
2021/06/19 09:53:48;;;;;;;;;;;34.30;44.90;;;;;;4715764;30;20094;-78
2021/06/19 09:56:15;;;;;;;12.70;3.95;;;34.20;46.20;;;;;;4715255;30;19980;-79
2021/06/19 09:58:46;;;;;;;6.50;4.13;;;34.30;46.20;;;;;;4715581;30;20228;-79
2021/06/19 10:01:40;;;;;;;9.85;4.60;;;34.40;45.20;;;;;;4730555;30;20045;-79
2021/06/19 10:04:09;;;;;;;7.00;4.10;;;34.20;44.30;;;;;;4730335;30;20332;-79
2021/06/19 10:06:36;;;;;;;7.28;4.38;;;34.00;46.00;;;;;;4716422;30;20073;-79
2021/06/19 10:09:03;;;;;;;21.42;4.40;;;34.10;46.00;;;;;;4729379;30;20130;-79
2021/06/19 10:11:30;;;;;;;14.65;6.07;;;34.20;45.40;;;;;;4728704;30;20036;-77
2021/06/19 10:14:00;;;;;;;9.95;6.20;;;34.30;45.40;;;;;;4712041;30;20075;-76
2021/06/19 10:16:28;;;;;;;14.77;8.23;;;34.60;45.30;;;;;;4721630;30;20415;-77
2021/06/19 10:18:55;;;;;;;13.35;5.28;;;34.80;45.00;;;;;;4724270;30;20044;-77
2021/06/19 10:21:23;;;;;;;5.82;4.65;;;35.10;45.40;;;;;;4712083;30;20227;-77
2021/06/19 10:23:49;;;;;;;12.07;4.22;;;34.90;45.30;;;;;;4726403;30;20239;-77
2021/06/19 10:26:21;;;;;;;4.95;4.40;;;34.80;43.70;;;;;;4727546;30;20029;-77
2021/06/19 10:28:50;;;;;;;7.38;4.57;;;34.70;43.40;;;;;;4727743;30;20051;-77
2021/06/19 10:31:19;;;;;;;6.80;4.47;;;34.60;45.20;;;;;;4726359;30;20036;-77
2021/06/19 10:33:46;;;;;;;10.85;4.95;;;34.60;45.10;;;;;;4727288;30;20036;-77
2021/06/19 10:36:13;;;;;;;7.75;4.70;;;34.70;43.80;;;;;;4726473;30;20104;-77
2021/06/19 10:39:11;;;;;;;8.00;4.50;;;34.60;44.00;;;;;;4727396;30;20033;-77
2021/06/19 10:41:48;;;;;;;7.38;5.15;;;34.50;44.10;;;;;;4694299;30;20053;-79
2021/06/19 10:44:14;;;;;;;6.05;4.85;;;34.40;45.00;;;;;;4680801;30;20126;-79
2021/06/19 10:46:40;;;;;;;282.50;258.33;;;34.40;46.20;;;;;;4687844;30;20052;-79
2021/06/19 10:49:18;;;;;;;8.00;5.50;;;34.70;44.30;;;;;;4695628;30;20063;-79
2021/06/19 10:51:44;;;;;;;9.25;6.10;;;35.00;44.60;;;;;;4696490;30;20048;-79
2021/06/19 10:54:12;;;;;;;8.63;5.10;;;35.10;44.40;;;;;;4705985;30;20096;-79
2021/06/19 10:56:57;;;;;;;5.28;4.10;;;35.20;45.70;;;;;;4698530;30;20108;-79
2021/06/19 10:59:27;;;;;;;9.48;5.28;;;35.10;43.00;;;;;;4699505;30;20037;-79
2021/06/19 11:01:57;;;;;;;7.90;4.43;;;34.90;45.60;;;;;;4680272;30;20033;-79
2021/06/19 11:04:41;;;;;;;12.73;5.45;;;34.90;43.60;;;;;;4689672;30;20053;-78
2021/06/19 11:07:18;;;;;;;10.20;6.05;;;34.90;45.00;;;;;;4677797;30;20104;-79
2021/06/19 11:09:49;;;;;;;7.97;5.28;;;35.10;44.80;;;;;;4691416;30;20060;-79
2021/06/19 11:12:25;;;;;;;14.05;8.05;;;35.10;44.10;;;;;;4698026;30;20045;-79
2021/06/19 11:14:53;;;;;;;12.00;5.88;;;35.20;43.20;;;;;;4698635;30;20045;-78
2021/06/19 11:17:26;;;;;;;9.93;5.05;;;35.40;44.10;;;;;;4700100;30;20105;-79
2021/06/19 11:19:54;;;;;;;10.07;5.18;;;35.60;44.40;;;;;;4734578;30;20100;-78
2021/06/19 11:22:41;;;;;;;9.43;5.15;;;35.80;42.90;;;;;;4722702;30;20095;-79
2021/06/19 11:25:19;;;;;;;9.40;4.70;;;35.70;41.50;;;;;;4713135;30;20088;-79
2021/06/19 11:27:49;;;;;;;6.57;5.63;;;35.90;41.00;;;;;;4734241;30;20024;-80
2021/06/19 11:30:34;;;;;;;6.20;4.72;;;35.70;42.70;;;;;;4715451;30;20404;-80
2021/06/19 11:33:21;;;;;;;9.02;5.45;;;35.60;43.70;;;;;;4716458;30;20029;-80
2021/06/19 11:35:56;;;;;;;8.95;4.70;;;35.50;41.40;;;;;;4720599;30;20047;-80
2021/06/19 11:38:22;;;;;;;9.20;5.85;;;35.30;42.20;;;;;;4729132;30;20096;-80
2021/06/19 11:40:50;;;;;;;13.93;7.10;;;35.40;44.60;;;;;;4717990;30;20033;-80
2021/06/19 11:43:30;;;;;;;9.23;5.43;;;35.60;43.10;;;;;;4723958;30;20033;-80
2021/06/19 11:46:00;;;;;;;9.57;5.00;;;35.80;43.30;;;;;;4734044;30;20048;-81
2021/06/19 11:48:27;;;;;;;8.98;5.43;;;35.60;40.60;;;;;;4723900;30;20049;-80
2021/06/19 11:51:03;;;;;;;10.38;4.95;;;35.60;42.80;;;;;;4728051;30;20233;-80
2021/06/19 11:53:36;;;;;;;9.18;5.10;;;35.60;41.50;;;;;;4728842;30;20037;-80
2021/06/19 11:56:14;;;;;;;12.98;5.10;;;35.70;41.70;;;;;;4728045;30;20040;-80
2021/06/19 11:58:44;;;;;;;8.50;5.28;;;35.90;40.80;;;;;;4717110;30;20028;-80
2021/06/19 12:01:10;;;;;;;7.95;5.10;;;35.60;41.60;;;;;;4745344;30;20032;-80
2021/06/19 12:03:36;;;;;;;11.30;5.78;;;35.80;43.40;;;;;;4733172;30;20059;-80
2021/06/19 12:06:02;;;;;;;7.63;5.88;;;36.00;41.00;;;;;;4713678;30;20029;-80
2021/06/19 12:08:28;;;;;;;8.93;4.70;;;36.30;40.30;;;;;;4728512;30;20040;-80
2021/06/19 12:10:54;;;;;;;8.90;4.90;;;36.40;39.80;;;;;;4714200;30;20068;-80
2021/06/19 12:13:40;;;;;;;5.80;4.82;;;36.50;42.20;;;;;;4718252;30;20059;-80
2021/06/19 12:16:09;;;;;;;14.60;4.88;;;36.70;40.00;;;;;;4705269;30;20033;-80
2021/06/19 12:18:35;;;;;;;12.77;4.38;;;36.40;41.00;;;;;;4726276;30;20056;-80
2021/06/19 12:21:06;;;;;;;7.15;4.82;;;36.20;40.40;;;;;;4723603;30;20076;-80
2021/06/19 12:23:45;;;;;;;8.55;4.82;;;36.30;40.40;;;;;;4712246;30;20041;-80
2021/06/19 12:26:13;;;;;;;10.30;4.80;;;36.40;39.20;;;;;;4726412;30;20033;-80
2021/06/19 12:28:45;;;;;;;5.88;4.63;;;36.30;40.20;;;;;;4726673;30;20037;-80
2021/06/19 12:31:11;;;;;;;5.07;4.57;;;36.30;39.10;;;;;;4723469;30;20127;-80
2021/06/19 12:33:37;;;;;;;5.10;4.18;;;36.30;40.60;;;;;;4729521;30;20108;-80
2021/06/19 12:36:07;;;;;;;6.00;4.47;;;36.40;40.50;;;;;;4725860;30;20138;-80
2021/06/19 12:38:34;;;;;;;5.55;4.72;;;36.60;39.10;;;;;;4721371;30;20329;-80
2021/06/19 12:41:03;;;;;;;8.73;5.15;;;36.80;41.80;;;;;;4715157;30;20047;-80
2021/06/19 12:43:29;;;;;;;5.57;4.53;;;36.80;38.70;;;;;;4730117;30;20067;-80
2021/06/19 12:45:55;;;;;;;6.72;4.07;;;37.00;39.10;;;;;;4729744;30;20037;-80
2021/06/19 12:48:25;;;;;;;5.45;4.30;;;37.10;38.90;;;;;;4711455;30;20037;-80
2021/06/19 12:50:58;;;;;;;13.00;4.72;;;37.20;40.30;;;;;;4714809;30;20099;-80
2021/06/19 12:53:35;;;;;;;5.35;4.32;;;37.40;39.90;;;;;;4726930;30;20040;-80
2021/06/19 12:56:06;;;;;;;9.38;4.13;;;37.20;37.70;;;;;;4730563;30;20037;-80
2021/06/19 12:58:39;;;;;;;6.50;4.10;;;37.00;39.00;;;;;;4714478;30;20035;-79
2021/06/19 13:01:26;;;;;;;8.45;4.32;;;36.90;39.10;;;;;;4728836;30;20040;-80
2021/06/19 13:03:57;;;;;;;4.40;3.88;;;36.80;40.10;;;;;;4714608;30;20033;-80
2021/06/19 13:06:36;;;;;;;6.38;4.00;;;36.80;38.90;;;;;;4727755;30;20045;-79
2021/06/19 13:09:05;;;;;;;6.18;4.05;;;36.80;38.60;;;;;;4728794;30;20029;-79
2021/06/19 13:11:45;;;;;;;6.68;4.10;;;36.80;39.40;;;;;;4714302;30;20029;-79
2021/06/19 13:14:20;;;;;;;8.80;4.03;;;37.00;39.40;;;;;;4714500;30;20090;-79
2021/06/19 13:16:46;;;;;;;5.13;4.28;;;37.00;39.10;;;;;;4719861;30;20232;-79
2021/06/19 13:19:14;;;;;;;5.63;3.70;;;37.20;40.40;;;;;;4737436;30;20029;-79
2021/06/19 13:21:46;;;;;;;8.10;3.95;;;37.30;37.30;;;;;;4728933;30;20279;-79
2021/06/19 13:24:24;;;;;;;9.02;4.18;;;37.00;38.20;;;;;;4714566;30;20045;-79
2021/06/19 13:26:52;;;;;;;10.30;3.97;;;36.90;39.80;;;;;;4729019;30;20036;-80
2021/06/19 13:29:21;;;;;;;8.60;4.45;;;36.70;37.40;;;;;;4729819;30;20372;-79
2021/06/19 13:31:49;;;;;;;8.20;4.40;;;36.40;39.30;;;;;;4728732;30;20029;-80
2021/06/19 13:34:26;;;;;;;7.97;4.22;;;36.30;37.60;;;;;;4714272;30;20048;-79
2021/06/19 13:37:06;;;;;;;7.85;4.00;;;36.30;38.60;;;;;;4729942;30;20202;-79
2021/06/19 13:39:34;;;;;;;5.45;3.92;;;36.40;39.00;;;;;;4714376;30;20060;-79
2021/06/19 13:42:04;;;;;;;9.88;3.90;;;36.50;38.70;;;;;;4728560;30;20033;-79
2021/06/19 13:44:33;;;;;;;7.22;3.60;;;36.70;38.00;;;;;;4728223;30;20041;-80
2021/06/19 13:46:59;;;;;;;7.30;3.58;;;36.60;37.70;;;;;;4722823;30;20050;-79
2021/06/19 13:49:25;;;;;;;7.28;3.75;;;36.50;39.00;;;;;;4725195;30;20240;-80
2021/06/19 13:51:59;;;;;;;10.00;4.03;;;36.60;37.80;;;;;;4728371;30;20032;-79
2021/06/19 13:54:27;;;;;;;7.55;3.80;;;36.70;38.90;;;;;;4728844;30;20049;-80
2021/06/19 13:56:54;;;;;;;7.22;4.00;;;36.60;38.20;;;;;;4729510;30;20048;-80
2021/06/19 13:59:20;;;;;;;5.25;3.72;;;36.60;37.40;;;;;;4728636;30;20049;-79
2021/06/19 14:01:47;;;;;;;9.50;3.63;;;36.50;38.40;;;;;;4714161;30;20037;-79
2021/06/19 14:04:13;;;;;;;3.33;3.03;;;36.60;38.60;;;;;;4728422;30;20041;-79
2021/06/19 14:06:39;;;;;;;4.15;3.75;;;36.70;37.60;;;;;;4727997;30;20292;-79
2021/06/19 14:09:07;;;;;;;4.93;3.97;;;36.80;37.70;;;;;;4712996;30;20033;-80
2021/06/19 14:11:34;;;;;;;11.27;3.90;;;37.00;37.40;;;;;;4727500;30;20614;-80
2021/06/19 14:14:00;;;;;;;5.68;4.20;;;37.00;36.30;;;;;;4713423;30;20153;-80
2021/06/19 14:16:27;;;;;;;4.32;3.88;;;36.70;36.00;;;;;;4713439;30;20044;-79
2021/06/19 14:18:54;;;;;;;4.55;3.67;;;36.70;37.70;;;;;;4713425;30;20040;-79
2021/06/19 14:21:21;;;;;;;6.50;3.72;;;37.00;36.90;;;;;;4728670;30;20108;-80
2021/06/19 14:23:48;;;;;;;4.03;3.53;;;37.10;37.00;;;;;;4727701;30;20056;-80
2021/06/19 14:26:17;;;;;;;7.32;4.20;;;37.10;37.30;;;;;;4727683;30;20087;-79
2021/06/19 14:28:44;;;;;;;6.50;4.43;;;37.20;38.30;;;;;;4713185;30;20228;-79
2021/06/19 14:31:10;;;;;;;;;;;37.20;37.10;;;;;;4713267;30;20033;-80
2021/06/19 14:33:36;;;;;;;5.53;4.20;;;37.30;36.90;;;;;;4727629;30;19918;-79
2021/06/19 14:36:03;;;;;;;10.57;4.38;;;37.30;36.40;;;;;;4727881;30;20043;-79
2021/06/19 14:38:29;;;;;;;5.43;4.22;;;37.30;36.70;;;;;;4729148;30;20029;-79
2021/06/19 14:40:56;;;;;;;4.95;3.42;;;37.10;34.80;;;;;;4713511;30;20469;-79
2021/06/19 14:43:22;;;;;;;9.50;3.58;;;36.70;36.50;;;;;;4713205;30;20107;-79
2021/06/19 14:45:48;;;;;;;12.13;4.05;;;36.70;37.80;;;;;;4727514;30;20036;-79
2021/06/19 14:48:16;;;;;;;5.18;3.95;;;36.80;37.50;;;;;;4732527;30;20344;-79
2021/06/19 14:50:45;;;;;;;4.68;4.00;;;36.90;36.70;;;;;;4727905;30;20115;-79
2021/06/19 14:53:12;;;;;;;7.18;4.10;;;37.00;37.00;;;;;;4727993;30;20084;-79
2021/06/19 14:55:39;;;;;;;10.23;3.65;;;37.00;36.70;;;;;;4727844;30;20347;-79
2021/06/19 14:58:06;;;;;;;8.65;3.75;;;36.90;36.40;;;;;;4727711;30;20340;-80
2021/06/19 15:00:33;;;;;;;6.32;4.10;;;37.00;36.30;;;;;;4727299;30;20040;-80
2021/06/19 15:02:59;;;;;;;;;;;37.00;36.10;;;;;;4727739;30;20029;-80
2021/06/19 15:05:25;;;;;;;;;;;36.90;35.20;;;;;;4727913;30;19919;-80
2021/06/19 15:07:51;;;;;;;;;;;36.60;35.00;;;;;;4713635;30;19933;-79
2021/06/19 15:10:16;;;;;;;;;;;36.40;35.60;;;;;;4727954;30;19927;-79
2021/06/19 15:12:42;;;;;;;5.20;3.67;;;36.30;35.80;;;;;;4713059;30;19961;-79
2021/06/19 15:15:10;;;;;;;9.90;3.63;;;36.40;37.00;;;;;;4713024;30;20029;-79
2021/06/19 15:17:36;;;;;;;5.15;3.78;;;36.50;35.90;;;;;;4725623;30;20044;-79
2021/06/19 15:20:07;;;;;;;;;;;36.60;35.90;;;;;;4727772;30;20033;-79
2021/06/19 15:22:33;;;;;;;10.73;4.05;;;36.70;36.30;;;;;;4727439;30;20106;-79
2021/06/19 15:25:02;;;;;;;5.32;3.03;;;36.80;36.10;;;;;;4712660;30;20029;-78
2021/06/19 15:27:28;;;;;;;6.78;3.47;;;36.70;36.20;;;;;;4726969;30;20321;-78
2021/06/19 15:29:55;;;;;;;5.55;3.70;;;36.70;36.00;;;;;;4727869;30;20118;-78
2021/06/19 15:32:21;;;;;;;4.78;3.00;;;36.70;35.80;;;;;;4727468;30;20071;-77
2021/06/19 15:34:47;;;;;;;3.70;3.13;;;36.60;35.60;;;;;;4711774;30;20313;-77
2021/06/19 15:37:13;;;;;;;6.90;3.08;;;36.20;35.30;;;;;;4726253;30;20052;-77
2021/06/19 15:39:39;;;;;;;6.57;3.50;;;35.80;35.70;;;;;;4726371;30;20045;-77